Time;durP1;ratioP1;P1;durP2;ratioP2;P2;SDS_P1;SDS_P2;PMS_P1;PMS_P2;Temp;Humidity;BMP_temperature;BMP_pressure;BME280_temperature;BME280_humidity;BME280_pressure;Samples;Min_cycle;Max_cycle;Signal;HPM_P1;HPM_P2
2020/12/03 00:00:43;;;;;;;3.95;1.63;;;23.20;41.90;;;;;;4978722;28;20038;-64
2020/12/03 00:03:17;;;;;;;18.40;1.80;;;23.00;41.50;;;;;;4982113;28;20046;-64
2020/12/03 00:05:48;;;;;;;12.20;2.03;;;22.70;42.60;;;;;;4981250;28;20045;-65
2020/12/03 00:08:15;;;;;;;7.90;1.92;;;22.60;40.80;;;;;;4982969;28;20084;-65
2020/12/03 00:10:42;;;;;;;6.63;2.13;;;22.40;40.80;;;;;;4982044;28;20128;-64
2020/12/03 00:13:14;;;;;;;12.77;5.07;;;22.20;41.20;;;;;;4981392;28;20034;-65
2020/12/03 00:15:41;;;;;;;18.42;2.30;;;22.10;43.10;;;;;;4981910;28;20122;-67
2020/12/03 00:18:08;;;;;;;44.38;24.85;;;22.00;41.00;;;;;;4980964;28;20298;-66
2020/12/03 00:20:35;;;;;;;16.88;6.85;;;21.70;43.20;;;;;;4980976;28;20109;-66
2020/12/03 00:23:03;;;;;;;9.27;3.75;;;21.40;43.80;;;;;;4964195;28;20085;-66
2020/12/03 00:25:30;;;;;;;9.45;2.55;;;21.30;43.60;;;;;;4981773;28;20030;-65
2020/12/03 00:27:57;;;;;;;15.80;4.20;;;21.40;41.70;;;;;;4981546;28;20133;-66
2020/12/03 00:30:24;;;;;;;7.80;2.30;;;21.00;44.30;;;;;;4979577;28;20042;-65
2020/12/03 00:32:52;;;;;;;11.43;2.88;;;20.70;45.40;;;;;;4976565;28;20058;-65
2020/12/03 00:35:21;;;;;;;12.20;3.88;;;20.70;44.60;;;;;;4979274;28;20389;-65
2020/12/03 00:37:49;;;;;;;9.23;4.97;;;20.70;46.00;;;;;;4980215;28;20026;-65
2020/12/03 00:40:18;;;;;;;10.05;2.00;;;20.30;45.60;;;;;;4980932;28;20108;-64
2020/12/03 00:42:45;;;;;;;4.57;1.67;;;20.00;45.90;;;;;;4979152;28;20041;-65
2020/12/03 00:45:15;;;;;;;5.93;2.25;;;19.70;48.40;;;;;;4980138;28;20367;-65
2020/12/03 00:47:42;;;;;;;5.97;2.47;;;19.50;49.10;;;;;;4978056;28;20077;-64
2020/12/03 00:50:13;;;;;;;41.78;17.15;;;19.30;49.90;;;;;;4980057;28;20034;-65
2020/12/03 00:52:40;;;;;;;16.73;5.75;;;19.10;49.70;;;;;;4979061;28;20045;-66
2020/12/03 00:55:07;;;;;;;38.28;19.13;;;18.90;50.90;;;;;;4980108;28;20023;-65
2020/12/03 00:57:34;;;;;;;9.65;4.65;;;18.60;51.30;;;;;;4980229;28;20448;-65
2020/12/03 01:00:01;;;;;;;9.50;3.33;;;18.40;52.00;;;;;;5417523;23;20128;-66
2020/12/03 01:02:28;;;;;;;6.95;3.38;;;18.40;51.80;;;;;;5439584;23;20050;-64
2020/12/03 01:04:54;;;;;;;12.02;5.78;;;18.30;51.10;;;;;;4954770;28;20100;-65
2020/12/03 01:07:21;;;;;;;27.88;3.97;;;18.10;51.90;;;;;;4979855;28;20030;-64
2020/12/03 01:09:47;;;;;;;21.35;3.72;;;17.90;52.20;;;;;;4982178;28;20519;-65
2020/12/03 01:12:14;;;;;;;8.13;2.08;;;17.80;53.40;;;;;;4978070;28;20353;-65
2020/12/03 01:14:41;;;;;;;3.55;1.90;;;17.70;53.70;;;;;;4980412;28;20038;-65
2020/12/03 01:17:13;;;;;;;9.88;2.63;;;17.60;54.20;;;;;;4978167;28;20022;-66
2020/12/03 01:19:40;;;;;;;13.52;4.75;;;17.50;54.10;;;;;;4982889;28;20123;-66
2020/12/03 01:22:07;;;;;;;12.63;3.55;;;17.40;53.70;;;;;;4980603;28;20035;-65
2020/12/03 01:24:34;;;;;;;3.95;2.05;;;17.30;54.00;;;;;;4979417;28;20026;-65
2020/12/03 01:27:02;;;;;;;11.43;2.22;;;17.20;54.30;;;;;;4980303;28;20030;-64
2020/12/03 01:29:29;;;;;;;6.05;1.98;;;17.10;55.00;;;;;;4978978;28;20023;-65
2020/12/03 01:31:55;;;;;;;4.90;2.08;;;17.10;54.10;;;;;;4976835;28;20027;-65
2020/12/03 01:36:57;;;;;;;7.10;2.13;;;17.00;55.10;;;;;;5200144;23;20321;-65
2020/12/03 01:39:24;;;;;;;6.93;2.25;;;16.90;55.70;;;;;;4978529;28;20038;-65
2020/12/03 01:41:50;;;;;;;7.93;2.80;;;16.90;52.60;;;;;;4980375;28;20310;-64
2020/12/03 01:44:36;;;;;;;6.32;2.42;;;16.90;55.00;;;;;;4979950;28;20026;-64
2020/12/03 01:47:03;;;;;;;10.95;3.03;;;16.90;51.80;;;;;;4979040;28;20038;-64
2020/12/03 01:49:33;;;;;;;7.22;2.25;;;16.90;54.30;;;;;;4981264;28;20034;-64
2020/12/03 01:52:00;;;;;;;13.85;1.95;;;16.80;54.70;;;;;;4979864;28;20031;-64
2020/12/03 01:54:27;;;;;;;10.40;2.38;;;16.80;52.70;;;;;;4980288;28;20368;-64
2020/12/03 01:57:00;;;;;;;4.60;2.17;;;16.80;55.30;;;;;;4978602;28;20022;-63
2020/12/03 01:59:39;;;;;;;8.50;2.30;;;16.70;55.40;;;;;;4979952;28;20054;-64
2020/12/03 02:02:07;;;;;;;5.13;2.00;;;16.70;54.80;;;;;;4978509;28;20065;-64
2020/12/03 02:04:34;;;;;;;5.82;2.00;;;16.70;55.30;;;;;;4977142;28;20097;-63
2020/12/03 02:07:07;;;;;;;10.68;2.35;;;16.50;56.60;;;;;;4979407;28;20107;-64
2020/12/03 02:09:34;;;;;;;13.20;1.90;;;16.40;56.60;;;;;;4980611;28;20026;-64
2020/12/03 02:12:01;;;;;;;10.90;2.40;;;16.40;56.30;;;;;;4978006;28;20129;-64
2020/12/03 02:14:28;;;;;;;8.63;2.20;;;16.30;55.10;;;;;;4977936;28;20532;-64
2020/12/03 02:16:55;;;;;;;9.75;3.10;;;16.30;52.70;;;;;;4978159;28;20034;-64
2020/12/03 02:19:31;;;;;;;10.82;2.33;;;16.20;56.50;;;;;;4978656;28;20297;-63
2020/12/03 02:22:02;;;;;;;7.80;2.22;;;16.10;58.00;;;;;;4980275;28;20314;-64
2020/12/03 02:24:33;;;;;;;7.18;1.75;;;16.00;57.30;;;;;;4978028;28;20397;-64
2020/12/03 02:27:00;;;;;;;6.32;2.00;;;16.00;56.40;;;;;;4979155;28;20039;-65
2020/12/03 02:29:28;;;;;;;8.70;2.08;;;15.90;56.80;;;;;;4979248;28;20038;-64
2020/12/03 02:31:55;;;;;;;9.60;2.35;;;15.80;55.10;;;;;;4975269;28;20037;-64
2020/12/03 02:34:22;;;;;;;9.70;2.00;;;15.70;55.70;;;;;;4978352;28;20088;-64
2020/12/03 02:36:57;;;;;;;10.63;1.95;;;15.70;54.00;;;;;;4979578;28;20042;-64
2020/12/03 02:39:26;;;;;;;8.15;2.00;;;15.70;54.80;;;;;;4979907;28;20655;-64
2020/12/03 02:41:53;;;;;;;9.48;1.92;;;15.60;54.00;;;;;;4978368;28;20038;-63
2020/12/03 02:44:20;;;;;;;9.75;2.08;;;15.60;54.20;;;;;;4974456;28;20574;-65
2020/12/03 02:46:48;;;;;;;6.68;2.10;;;15.50;56.00;;;;;;4978571;28;20879;-64
2020/12/03 02:49:16;;;;;;;5.10;1.90;;;15.40;56.70;;;;;;4977053;28;20034;-63
2020/12/03 02:51:43;;;;;;;5.43;2.43;;;15.30;56.40;;;;;;4974696;28;20026;-66
2020/12/03 02:54:12;;;;;;;10.45;2.83;;;15.30;57.20;;;;;;4976439;28;20031;-65
2020/12/03 02:56:39;;;;;;;8.18;2.10;;;15.30;57.10;;;;;;4975075;28;20489;-65
2020/12/03 02:59:07;;;;;;;3.63;2.28;;;15.20;56.30;;;;;;4975878;28;20462;-65
2020/12/03 03:01:34;;;;;;;10.85;2.15;;;15.20;55.70;;;;;;4978575;28;20061;-65
2020/12/03 03:04:04;;;;;;;10.45;2.05;;;15.20;55.30;;;;;;4975897;28;20054;-65
2020/12/03 03:06:32;;;;;;;8.23;1.52;;;15.20;56.80;;;;;;4978415;28;20046;-64
2020/12/03 03:08:58;;;;;;;2.83;1.40;;;15.10;54.90;;;;;;4978409;28;20042;-66
2020/12/03 03:11:25;;;;;;;2.28;1.40;;;15.10;56.30;;;;;;4977974;28;20102;-65
2020/12/03 03:13:52;;;;;;;5.60;1.80;;;15.00;57.00;;;;;;4980381;28;20033;-65
2020/12/03 03:16:19;;;;;;;6.28;1.60;;;15.00;57.40;;;;;;4980851;28;20026;-65
2020/12/03 03:18:45;;;;;;;5.32;1.10;;;15.10;55.90;;;;;;4979820;28;20109;-65
2020/12/03 03:21:12;;;;;;;2.80;0.93;;;15.20;53.90;;;;;;4965666;28;20031;-65
2020/12/03 03:23:38;;;;;;;4.93;1.13;;;15.20;53.30;;;;;;4978713;28;20049;-66
2020/12/03 03:26:06;;;;;;;10.35;1.33;;;15.20;56.30;;;;;;4978172;28;20033;-66
2020/12/03 03:28:32;;;;;;;10.85;1.50;;;15.20;56.90;;;;;;4979791;28;20039;-66
2020/12/03 03:30:59;;;;;;;10.20;1.73;;;15.10;58.60;;;;;;4977649;28;20053;-64
2020/12/03 03:33:26;;;;;;;4.05;1.15;;;14.90;58.70;;;;;;4975878;28;20026;-65
2020/12/03 03:35:53;;;;;;;5.68;0.90;;;15.00;56.40;;;;;;4975240;28;20039;-64
2020/12/03 03:38:19;;;;;;;5.93;1.20;;;15.00;53.20;;;;;;4977822;28;20018;-66
2020/12/03 03:40:46;;;;;;;3.55;0.80;;;14.90;55.90;;;;;;4979788;28;20026;-67
2020/12/03 03:43:12;;;;;;;4.85;1.17;;;14.90;57.00;;;;;;4975668;28;20065;-66
2020/12/03 03:45:39;;;;;;;3.05;1.00;;;14.80;56.90;;;;;;4978072;28;20086;-64
2020/12/03 03:48:06;;;;;;;4.63;1.20;;;14.80;57.60;;;;;;4977996;28;20046;-64
2020/12/03 03:50:33;;;;;;;6.28;1.13;;;14.80;56.70;;;;;;4977337;28;20477;-64
2020/12/03 03:53:00;;;;;;;2.28;0.88;;;14.70;57.20;;;;;;4978327;28;20057;-66
2020/12/03 03:55:26;;;;;;;8.75;1.80;;;14.70;57.90;;;;;;4979253;28;20022;-66
2020/12/03 03:57:53;;;;;;;7.88;0.90;;;14.70;56.40;;;;;;4978633;28;20510;-65
2020/12/03 04:00:19;;;;;;;8.27;1.20;;;14.60;58.20;;;;;;4975382;28;20030;-65
2020/12/03 04:02:47;;;;;;;8.27;1.20;;;14.50;58.10;;;;;;4976529;28;20427;-67
2020/12/03 04:05:15;;;;;;;1.92;0.73;;;14.50;53.60;;;;;;4974779;28;21630;-66
2020/12/03 04:07:41;;;;;;;1.80;0.60;;;14.50;57.20;;;;;;4978536;28;20041;-66
2020/12/03 04:10:08;;;;;;;3.53;0.70;;;14.50;56.20;;;;;;4977856;28;20030;-64
2020/12/03 04:12:36;;;;;;;2.63;0.82;;;14.40;57.30;;;;;;4978724;28;20034;-65
2020/12/03 04:15:03;;;;;;;5.28;1.23;;;14.30;57.10;;;;;;4977260;28;20038;-62
2020/12/03 04:17:30;;;;;;;8.05;0.73;;;14.30;57.10;;;;;;4978018;28;20426;-63
2020/12/03 04:19:57;;;;;;;4.10;0.80;;;14.30;53.60;;;;;;4980762;28;20034;-63
2020/12/03 04:22:27;;;;;;;6.18;2.08;;;14.30;56.90;;;;;;4980350;28;20030;-62
2020/12/03 04:24:54;;;;;;;3.53;0.60;;;14.40;55.10;;;;;;4976860;28;20038;-63
2020/12/03 04:27:21;;;;;;;1.80;0.90;;;14.30;55.80;;;;;;4977616;28;20042;-63
2020/12/03 04:29:47;;;;;;;5.15;1.20;;;14.40;56.90;;;;;;4978854;28;20066;-63
2020/12/03 04:32:14;;;;;;;4.00;0.85;;;14.50;53.30;;;;;;4979220;28;20038;-62
2020/12/03 04:34:41;;;;;;;3.40;0.60;;;14.60;50.90;;;;;;4979599;28;20500;-62
2020/12/03 04:37:07;;;;;;;6.78;0.88;;;14.90;48.70;;;;;;4980574;28;20074;-63
2020/12/03 04:39:34;;;;;;;2.20;0.38;;;15.10;47.30;;;;;;4980524;28;20025;-63
2020/12/03 04:42:00;;;;;;;4.32;0.93;;;15.40;46.10;;;;;;4979110;28;20420;-64
2020/12/03 04:44:39;;;;;;;2.47;0.68;;;15.60;46.30;;;;;;4981662;28;20316;-62
2020/12/03 04:47:33;;;;;;;1.52;0.30;;;15.80;44.90;;;;;;4980176;28;20023;-64
2020/12/03 04:50:10;;;;;;;4.55;0.55;;;15.90;45.10;;;;;;4979515;28;20695;-63
2020/12/03 04:53:13;;;;;;;5.80;0.75;;;16.00;45.20;;;;;;4979641;28;20107;-64
2020/12/03 04:55:49;;;;;;;16.05;0.95;;;16.00;44.20;;;;;;4979332;28;20114;-64
2020/12/03 04:58:37;;;;;;;4.13;0.55;;;16.20;43.60;;;;;;4979534;28;20026;-65
2020/12/03 05:01:08;;;;;;;5.65;0.90;;;16.40;43.20;;;;;;4978981;28;20085;-64
2020/12/03 05:03:56;;;;;;;12.30;0.98;;;16.40;44.10;;;;;;4979753;28;20135;-64
2020/12/03 05:06:47;;;;;;;8.05;1.17;;;16.40;43.50;;;;;;4980436;28;20303;-64
2020/12/03 05:09:35;;;;;;;11.07;0.77;;;16.40;43.90;;;;;;4978720;28;20037;-65
2020/12/03 05:12:17;;;;;;;8.70;1.15;;;16.40;44.20;;;;;;4978471;28;20127;-67
2020/12/03 05:14:51;;;;;;;12.70;0.95;;;16.60;43.00;;;;;;4958203;28;20153;-65
2020/12/03 05:17:35;;;;;;;2.40;0.82;;;16.60;43.00;;;;;;4979517;28;20033;-63
2020/12/03 05:20:11;;;;;;;10.38;0.68;;;16.50;43.30;;;;;;4980486;28;20048;-64
2020/12/03 05:22:39;;;;;;;8.32;0.68;;;16.50;43.30;;;;;;4979883;28;20034;-63
2020/12/03 05:25:15;;;;;;;5.93;1.02;;;16.50;43.70;;;;;;4979369;28;20094;-62
2020/12/03 05:27:45;;;;;;;6.50;0.75;;;16.40;43.70;;;;;;4981099;28;20598;-63
2020/12/03 05:30:12;;;;;;;4.82;0.45;;;16.40;43.10;;;;;;4980636;28;20037;-64
2020/12/03 05:32:39;;;;;;;8.27;0.60;;;16.40;43.70;;;;;;4979837;28;20172;-64
2020/12/03 05:35:10;;;;;;;8.32;0.65;;;16.50;42.80;;;;;;4979475;28;20026;-64
2020/12/03 05:37:39;;;;;;;8.55;1.30;;;16.50;43.20;;;;;;4977502;28;20178;-63
2020/12/03 05:40:06;;;;;;;;;;;16.60;43.00;;;;;;4979323;28;20348;-63
2020/12/03 05:42:36;;;;;;;9.57;2.08;;;16.80;42.20;;;;;;4980713;28;19917;-66
2020/12/03 05:45:17;;;;;;;5.55;0.90;;;17.10;41.40;;;;;;4966623;28;20027;-64
2020/12/03 05:47:47;;;;;;;21.30;1.00;;;17.10;41.10;;;;;;4978073;28;20034;-66
2020/12/03 05:50:29;;;;;;;16.10;1.58;;;17.20;41.20;;;;;;4977437;28;20090;-65
2020/12/03 05:53:04;;;;;;;17.05;1.08;;;17.30;40.70;;;;;;4978077;28;20113;-65
2020/12/03 05:55:32;;;;;;;14.02;0.85;;;17.30;41.10;;;;;;4976892;28;20269;-68
2020/12/03 05:58:16;;;;;;;7.68;0.90;;;17.30;40.50;;;;;;4976255;28;20015;-66
2020/12/03 06:00:44;;;;;;;8.13;0.70;;;17.40;40.50;;;;;;4977444;28;20026;-65
2020/12/03 06:03:14;;;;;;;7.47;0.95;;;17.30;40.60;;;;;;4976920;28;20057;-65
2020/12/03 06:05:59;;;;;;;10.57;1.13;;;17.30;40.70;;;;;;4974315;28;20084;-65
2020/12/03 06:08:32;;;;;;;12.77;1.70;;;17.40;40.50;;;;;;4976114;28;20038;-65
2020/12/03 06:11:44;;;;;;;17.92;1.40;;;17.40;40.20;;;;;;4974568;28;20070;-65
2020/12/03 06:14:42;;;;;;;25.55;1.08;;;17.40;39.30;;;;;;4951405;28;20139;-66
2020/12/03 06:17:50;;;;;;;16.10;1.60;;;17.50;39.40;;;;;;4917904;28;20064;-66
2020/12/03 06:20:40;;;;;;;6.50;0.60;;;17.50;39.50;;;;;;4978838;28;20034;-66
2020/12/03 06:23:38;;;;;;;21.42;2.03;;;17.50;39.20;;;;;;4979576;28;20027;-68
2020/12/03 06:26:13;;;;;;;16.83;1.33;;;17.70;38.10;;;;;;4977616;28;20039;-66
2020/12/03 06:28:58;;;;;;;13.60;2.05;;;17.70;38.10;;;;;;4978339;28;20042;-66
2020/12/03 06:31:28;;;;;;;9.77;1.27;;;17.60;38.50;;;;;;4976707;28;21574;-65
2020/12/03 06:34:03;;;;;;;8.88;0.85;;;17.70;38.10;;;;;;4980064;28;20084;-67
2020/12/03 06:36:29;;;;;;;16.83;1.20;;;17.70;38.10;;;;;;4977641;28;21344;-66
2020/12/03 06:39:19;;;;;;;22.65;1.83;;;17.80;38.00;;;;;;5467589;23;20020;-66
2020/12/03 06:41:49;;;;;;;15.70;1.73;;;17.70;38.10;;;;;;4978609;28;20022;-67
2020/12/03 06:44:43;;;;;;;18.88;1.40;;;17.60;38.00;;;;;;4979888;28;20026;-68
2020/12/03 06:47:38;;;;;;;16.05;1.20;;;17.60;37.90;;;;;;4978555;28;20360;-69
2020/12/03 06:50:49;;;;;;;39.05;2.28;;;17.60;38.70;;;;;;4978273;28;20261;-64
2020/12/03 06:53:27;;;;;;;18.88;1.20;;;17.60;37.60;;;;;;4943519;28;20039;-67
2020/12/03 06:56:16;;;;;;;22.58;1.00;;;17.50;38.10;;;;;;4980512;28;20192;-64
2020/12/03 06:59:29;;;;;;;13.40;0.60;;;17.60;37.40;;;;;;4981549;28;20031;-67
2020/12/03 07:02:04;;;;;;;4.72;0.80;;;17.50;37.50;;;;;;4978915;28;20034;-65
2020/12/03 07:04:40;;;;;;;16.25;0.77;;;17.50;37.80;;;;;;4980075;28;20049;-66
2020/12/03 07:07:28;;;;;;;15.18;1.02;;;17.50;37.50;;;;;;4976503;28;20601;-68
2020/12/03 07:10:32;;;;;;;15.82;0.82;;;17.60;37.20;;;;;;4980270;28;20037;-65
2020/12/03 07:13:35;;;;;;;9.73;1.25;;;17.60;36.90;;;;;;4979745;28;20468;-67
2020/12/03 07:16:17;;;;;;;10.02;0.60;;;17.50;37.40;;;;;;4965479;28;20096;-66
2020/12/03 07:19:02;;;;;;;15.68;1.17;;;17.50;37.10;;;;;;4978874;28;20077;-66
2020/12/03 07:21:35;;;;;;;10.50;0.80;;;17.50;36.70;;;;;;4980923;28;20062;-65
2020/12/03 07:24:02;;;;;;;26.38;1.55;;;17.70;36.50;;;;;;4980550;28;20041;-65
2020/12/03 07:26:34;;;;;;;6.75;1.10;;;17.70;36.50;;;;;;4978888;28;20041;-66
2020/12/03 07:29:01;;;;;;;20.67;1.02;;;17.60;36.70;;;;;;4965289;28;20026;-68
2020/12/03 07:31:36;;;;;;;14.30;0.95;;;17.70;36.10;;;;;;4975447;28;20369;-65
2020/12/03 07:34:30;;;;;;;7.65;0.63;;;17.70;36.30;;;;;;4978089;28;20062;-67
2020/12/03 07:37:21;;;;;;;27.13;2.10;;;17.70;36.40;;;;;;4977745;28;20023;-65
2020/12/03 07:39:50;;;;;;;5.43;1.00;;;17.60;36.70;;;;;;4974925;28;20052;-64
2020/12/03 07:42:18;;;;;;;;;;;17.70;36.10;;;;;;4976614;28;20039;-65
2020/12/03 07:44:50;;;;;;;14.20;1.00;;;17.60;36.40;;;;;;4978513;28;21103;-66
2020/12/03 07:47:23;;;;;;;4.30;0.70;;;17.60;36.30;;;;;;4979107;28;20890;-65
2020/12/03 07:49:52;;;;;;;8.25;0.60;;;17.60;36.40;;;;;;4979108;28;20046;-66
2020/12/03 07:52:30;;;;;;;10.50;0.50;;;17.70;36.50;;;;;;4966260;28;20030;-66
2020/12/03 07:55:22;;;;;;;16.83;0.57;;;17.60;36.40;;;;;;4980198;28;20033;-66
2020/12/03 07:57:51;;;;;;;16.75;0.85;;;17.60;36.50;;;;;;4980059;28;20035;-65
2020/12/03 08:00:36;;;;;;;14.20;1.00;;;17.60;36.50;;;;;;4962449;28;20030;-65
2020/12/03 08:03:04;;;;;;;9.30;0.70;;;17.60;36.70;;;;;;4980835;28;20071;-66
2020/12/03 08:05:33;;;;;;;10.30;0.98;;;17.60;36.60;;;;;;4981646;28;20048;-65
2020/12/03 08:08:00;;;;;;;19.90;1.42;;;17.60;36.10;;;;;;4980604;28;20030;-64
2020/12/03 08:10:38;;;;;;;13.18;1.38;;;17.80;35.90;;;;;;4981865;28;20488;-63
2020/12/03 08:13:28;;;;;;;14.70;0.80;;;17.70;36.70;;;;;;4979944;28;20046;-64
2020/12/03 08:15:56;;;;;;;4.70;1.45;;;17.60;36.60;;;;;;4980578;28;20022;-65
2020/12/03 08:18:38;;;;;;;11.13;0.83;;;17.50;36.60;;;;;;4981715;28;20078;-64
2020/12/03 08:21:05;;;;;;;13.43;1.23;;;17.50;36.50;;;;;;4982660;28;20031;-65
2020/12/03 08:23:32;;;;;;;9.13;0.75;;;17.50;36.40;;;;;;4981026;28;20102;-64
2020/12/03 08:25:58;;;;;;;15.77;1.25;;;17.50;36.40;;;;;;4982726;28;20035;-64
2020/12/03 08:28:29;;;;;;;9.55;0.57;;;17.50;36.70;;;;;;4981226;28;20027;-64
2020/12/03 08:30:55;;;;;;;19.95;0.93;;;17.50;36.70;;;;;;4981555;28;20726;-65
2020/12/03 08:33:26;;;;;;;7.88;1.00;;;17.50;36.80;;;;;;4980584;28;20106;-66
2020/12/03 08:35:59;;;;;;;7.65;0.88;;;17.40;37.00;;;;;;4981941;28;20528;-65
2020/12/03 08:38:32;;;;;;;14.55;0.90;;;17.40;36.80;;;;;;4981101;28;20026;-66
2020/12/03 08:41:03;;;;;;;7.93;0.65;;;17.40;36.70;;;;;;4959041;28;20141;-67
2020/12/03 08:43:34;;;;;;;12.52;1.02;;;17.40;37.40;;;;;;4981569;28;20348;-66
2020/12/03 08:48:33;;;;;;;10.05;0.85;;;17.30;37.10;;;;;;4981796;28;20302;-66
2020/12/03 08:51:07;;;;;;;8.60;0.47;;;17.30;37.70;;;;;;4982110;28;20038;-67
2020/12/03 08:53:35;;;;;;;6.22;0.70;;;17.30;37.60;;;;;;4979528;28;20117;-67
2020/12/03 08:56:09;;;;;;;6.68;0.73;;;17.10;37.60;;;;;;4980021;28;20113;-65
2020/12/03 08:58:36;;;;;;;6.15;0.38;;;17.20;36.80;;;;;;4980735;28;20027;-66
2020/12/03 09:01:05;;;;;;;8.80;1.30;;;17.10;37.00;;;;;;4980855;28;20022;-66
2020/12/03 09:03:34;;;;;;;12.57;0.88;;;17.10;37.30;;;;;;4963087;28;20109;-67
2020/12/03 09:06:01;;;;;;;9.48;0.63;;;17.10;37.20;;;;;;4964409;28;20049;-65
2020/12/03 09:08:27;;;;;;;16.70;1.10;;;17.10;36.90;;;;;;4962184;28;20034;-68
2020/12/03 09:10:58;;;;;;;10.15;0.68;;;17.10;37.50;;;;;;4980911;28;20096;-66
2020/12/03 09:13:26;;;;;;;6.57;0.70;;;17.10;37.00;;;;;;4978491;28;20635;-66
2020/12/03 09:15:55;;;;;;;18.25;0.55;;;17.20;36.90;;;;;;4979749;28;20027;-66
2020/12/03 09:18:22;;;;;;;10.88;0.85;;;17.10;37.70;;;;;;4979943;28;20030;-68
2020/12/03 09:20:49;;;;;;;10.25;1.90;;;17.00;37.80;;;;;;4980324;28;20030;-65
2020/12/03 09:23:24;;;;;;;17.45;1.40;;;16.90;42.50;;;;;;4980928;28;20043;-65
2020/12/03 09:25:51;;;;;;;15.00;0.65;;;16.90;38.00;;;;;;4982153;28;20045;-65
2020/12/03 09:28:21;;;;;;;6.55;0.75;;;16.90;37.80;;;;;;4978188;28;20057;-65
2020/12/03 09:30:48;;;;;;;11.50;1.05;;;16.80;38.70;;;;;;4980615;28;20035;-64
2020/12/03 09:33:19;;;;;;;4.35;0.50;;;16.80;38.80;;;;;;4979008;28;20038;-65
2020/12/03 09:35:49;;;;;;;3.70;0.75;;;16.80;38.30;;;;;;4969469;28;20695;-65
2020/12/03 09:38:17;;;;;;;15.50;0.80;;;16.70;38.20;;;;;;4967134;28;20026;-65
2020/12/03 09:40:48;;;;;;;8.70;0.57;;;16.70;38.10;;;;;;4977997;28;20378;-65
2020/12/03 09:43:21;;;;;;;8.30;0.70;;;16.70;38.30;;;;;;4965073;28;20092;-65
2020/12/03 09:45:56;;;;;;;12.40;1.13;;;16.70;37.70;;;;;;4980308;28;20041;-65
2020/12/03 09:48:26;;;;;;;25.10;1.30;;;16.70;37.90;;;;;;4980024;28;20358;-66
2020/12/03 09:50:52;;;;;;;6.68;0.30;;;16.70;37.90;;;;;;4979787;28;20061;-66
2020/12/03 09:53:22;;;;;;;3.53;0.55;;;16.60;38.10;;;;;;4981563;28;20220;-66
2020/12/03 09:55:49;;;;;;;5.68;0.30;;;16.60;38.20;;;;;;4980088;28;20077;-67
2020/12/03 09:58:19;;;;;;;4.38;0.52;;;16.60;37.40;;;;;;4981638;28;20045;-66
2020/12/03 10:00:52;;;;;;;5.18;0.30;;;16.60;37.90;;;;;;4979802;28;20030;-66
2020/12/03 10:03:40;;;;;;;4.15;0.43;;;16.50;37.80;;;;;;4979094;28;20097;-67
2020/12/03 10:06:22;;;;;;;5.75;0.60;;;16.50;37.70;;;;;;4979240;28;20069;-68
2020/12/03 10:09:19;;;;;;;4.05;0.50;;;16.50;37.80;;;;;;4981198;28;20034;-67
2020/12/03 10:12:19;;;;;;;10.27;0.90;;;16.40;38.00;;;;;;4977948;28;20037;-65
2020/12/03 10:15:20;;;;;;;18.98;0.73;;;16.40;38.50;;;;;;4979294;28;20615;-67
2020/12/03 10:18:14;;;;;;;10.50;0.57;;;16.40;37.40;;;;;;4977867;28;20058;-65
2020/12/03 10:20:42;;;;;;;6.97;0.80;;;16.40;37.50;;;;;;4980242;28;20030;-65
2020/12/03 10:23:23;;;;;;;7.38;1.00;;;16.40;37.30;;;;;;4979234;28;20221;-67
2020/12/03 10:26:06;;;;;;;3.78;0.45;;;16.50;36.70;;;;;;4978809;28;20450;-64
2020/12/03 10:28:51;;;;;;;22.63;0.77;;;16.60;36.60;;;;;;4979246;28;20038;-67
2020/12/03 10:31:20;;;;;;;9.25;0.40;;;16.50;37.10;;;;;;4978480;28;20059;-67
2020/12/03 10:33:51;;;;;;;7.78;0.60;;;16.50;36.30;;;;;;4979249;28;20030;-65
2020/12/03 10:36:46;;;;;;;20.90;0.88;;;16.50;36.60;;;;;;4979510;28;20124;-67
2020/12/03 10:39:14;;;;;;;8.07;0.80;;;16.40;36.90;;;;;;4978566;28;20301;-66
2020/12/03 10:41:42;;;;;;;8.25;0.85;;;16.30;36.60;;;;;;4978759;28;20034;-66
2020/12/03 10:44:15;;;;;;;9.55;1.02;;;16.30;36.90;;;;;;4980835;28;21105;-67
2020/12/03 10:46:46;;;;;;;2.95;0.35;;;16.30;37.00;;;;;;4978501;28;20046;-67
2020/12/03 10:49:15;;;;;;;3.65;0.30;;;16.20;36.70;;;;;;4979613;28;20022;-67
2020/12/03 10:51:44;;;;;;;;;;;16.20;36.40;;;;;;4962117;28;20030;-66
2020/12/03 10:54:18;;;;;;;4.22;0.20;;;16.30;36.30;;;;;;4980260;28;19921;-66
2020/12/03 10:56:49;;;;;;;3.17;0.30;;;16.20;36.90;;;;;;4979020;28;20046;-66
2020/12/03 10:59:32;;;;;;;11.90;0.63;;;16.10;36.70;;;;;;4978036;28;20109;-65
2020/12/03 11:02:00;;;;;;;2.20;0.32;;;16.00;37.10;;;;;;4980094;28;20109;-65
2020/12/03 11:04:29;;;;;;;1.50;0.20;;;15.90;36.90;;;;;;4978578;28;20149;-66
2020/12/03 11:07:07;;;;;;;6.25;0.63;;;16.00;36.60;;;;;;4978036;28;20066;-65
2020/12/03 11:09:34;;;;;;;0.83;0.33;;;15.90;36.70;;;;;;4978494;28;20034;-65
2020/12/03 11:12:01;;;;;;;8.98;0.52;;;15.80;36.60;;;;;;4976691;28;20035;-65
2020/12/03 11:14:32;;;;;;;5.78;0.75;;;15.80;36.60;;;;;;4977983;28;20022;-65
2020/12/03 11:17:22;;;;;;;14.45;0.55;;;15.80;37.00;;;;;;4980425;28;20022;-66
2020/12/03 11:19:57;;;;;;;4.47;0.35;;;15.70;37.30;;;;;;4966690;28;20068;-65
2020/12/03 11:22:43;;;;;;;4.05;0.40;;;15.70;37.30;;;;;;4982381;28;20065;-66
2020/12/03 11:25:14;;;;;;;5.35;0.20;;;15.60;37.30;;;;;;4983776;28;20098;-65
2020/12/03 11:27:44;;;;;;;6.25;0.68;;;15.60;36.70;;;;;;4982476;28;20030;-66
2020/12/03 11:30:20;;;;;;;3.03;1.00;;;15.60;37.70;;;;;;4983039;28;20030;-65
2020/12/03 11:32:56;;;;;;;9.93;0.77;;;15.60;37.10;;;;;;4966347;28;20396;-66
2020/12/03 11:35:26;;;;;;;4.88;0.25;;;15.60;37.60;;;;;;4982305;28;20073;-65
2020/12/03 11:37:54;;;;;;;6.53;0.50;;;15.50;37.60;;;;;;4982348;28;20051;-65
2020/12/03 11:40:30;;;;;;;6.15;1.13;;;15.60;37.40;;;;;;4982016;28;20061;-65
2020/12/03 11:48:56;;;;;;;4.75;0.43;;;15.70;37.20;;;;;;4884920;29;22074;-65
2020/12/03 11:51:36;;;;;;;6.68;0.40;;;15.60;37.70;;;;;;4948730;28;20043;-64
2020/12/03 11:54:02;;;;;;;17.08;0.60;;;15.60;37.80;;;;;;4981122;28;20392;-65
2020/12/03 11:56:31;;;;;;;4.80;1.45;;;15.70;37.70;;;;;;4981224;28;20860;-65
2020/12/03 11:59:19;;;;;;;10.95;0.32;;;15.60;37.90;;;;;;4983435;28;20034;-65
2020/12/03 12:01:57;;;;;;;1.50;0.30;;;15.70;37.60;;;;;;4968005;28;20127;-65
2020/12/03 12:04:35;;;;;;;3.83;0.47;;;15.70;37.30;;;;;;4981715;28;20113;-66
2020/12/03 12:07:53;;;;;;;5.90;0.30;;;15.70;37.20;;;;;;4958697;28;20038;-64
2020/12/03 12:12:21;;;;;;;5.82;0.55;;;15.70;37.40;;;;;;4979788;28;20035;-65
2020/12/03 12:14:47;;;;;;;3.42;0.43;;;15.70;37.50;;;;;;4981315;28;20030;-65
2020/12/03 12:17:16;;;;;;;6.43;0.82;;;15.70;37.60;;;;;;4982076;28;20034;-65
2020/12/03 12:19:43;;;;;;;7.55;0.50;;;15.70;37.60;;;;;;4981357;28;20026;-65
2020/12/03 12:22:13;;;;;;;3.65;0.35;;;15.60;37.80;;;;;;4981597;28;20026;-64
2020/12/03 12:24:46;;;;;;;13.30;1.02;;;15.60;38.20;;;;;;4982456;28;20108;-65
2020/12/03 12:27:13;;;;;;;1.58;0.73;;;15.60;37.60;;;;;;4979307;28;20557;-66
2020/12/03 12:29:42;;;;;;;7.45;0.40;;;15.40;38.10;;;;;;4982501;28;20031;-65
2020/12/03 12:32:09;;;;;;;13.77;0.60;;;15.40;37.60;;;;;;4981829;28;20038;-65
2020/12/03 12:34:35;;;;;;;1.05;0.30;;;15.40;38.30;;;;;;4980451;28;20058;-64
2020/12/03 12:37:02;;;;;;;6.25;0.30;;;15.30;39.00;;;;;;4983801;28;20034;-65
2020/12/03 12:39:29;;;;;;;6.53;0.30;;;15.20;38.80;;;;;;4981126;28;20595;-66
2020/12/03 12:42:03;;;;;;;4.30;0.32;;;15.10;38.60;;;;;;4979145;28;20113;-66
2020/12/03 12:44:30;;;;;;;8.43;0.57;;;15.00;39.30;;;;;;4981861;28;20058;-66
2020/12/03 12:46:58;;;;;;;3.05;0.40;;;15.00;39.40;;;;;;4981466;28;21777;-66
2020/12/03 12:49:25;;;;;;;4.25;0.60;;;14.90;39.90;;;;;;4981123;28;20128;-65
2020/12/03 12:51:53;;;;;;;5.05;0.90;;;14.70;39.70;;;;;;4980706;28;20062;-65
2020/12/03 12:54:21;;;;;;;3.05;0.47;;;14.70;39.60;;;;;;4983528;28;20070;-65
2020/12/03 12:56:48;;;;;;;1.50;0.40;;;14.50;39.70;;;;;;4981470;28;20459;-66
2020/12/03 12:59:15;;;;;;;1.45;0.40;;;14.50;39.60;;;;;;4964486;28;20030;-66
2020/12/03 13:01:49;;;;;;;8.90;0.43;;;14.40;39.50;;;;;;4982059;28;20108;-67
2020/12/03 13:04:17;;;;;;;4.65;0.38;;;14.30;40.00;;;;;;4982099;28;20152;-67
2020/12/03 13:06:44;;;;;;;1.88;0.50;;;14.20;43.00;;;;;;4979646;28;20117;-66
2020/12/03 13:09:12;;;;;;;8.18;0.60;;;13.90;45.20;;;;;;4980374;28;20041;-66
2020/12/03 13:11:39;;;;;;;6.00;0.37;;;13.50;50.40;;;;;;4979158;28;20369;-67
2020/12/03 13:14:08;;;;;;;4.07;0.75;;;13.20;51.80;;;;;;4964521;28;20765;-66
2020/12/03 13:16:35;;;;;;;4.82;0.40;;;12.80;51.90;;;;;;4980662;28;20038;-66
2020/12/03 13:19:03;;;;;;;6.97;0.50;;;12.60;52.30;;;;;;4981779;28;20628;-67
2020/12/03 13:21:31;;;;;;;5.17;1.00;;;12.50;50.60;;;;;;4980192;28;20296;-66
2020/12/03 13:24:01;;;;;;;3.03;0.50;;;12.30;51.40;;;;;;4979246;28;20369;-66